Time;durP1;ratioP1;P1;durP2;ratioP2;P2;SDS_P1;SDS_P2;PMS_P1;PMS_P2;Temp;Humidity;BMP_temperature;BMP_pressure;BME280_temperature;BME280_humidity;BME280_pressure;Samples;Min_cycle;Max_cycle;Signal;HPM_P1;HPM_P2
2022/11/06 00:00:18;;;;;;;0.40;0.40;;;18.90;71.50;;;;;;5007192;28;20513;-37
2022/11/06 00:02:43;;;;;;;0.50;0.50;;;18.80;71.60;;;;;;5009184;28;20491;-40
2022/11/06 00:07:53;;;;;;;;;;;18.80;71.70;;;;;;5005767;28;20149;-42
2022/11/06 00:10:19;;;;;;;0.95;0.40;;;18.80;71.70;;;;;;5010165;28;20012;-40
2022/11/06 00:12:44;;;;;;;0.75;0.50;;;18.80;71.60;;;;;;5016608;28;20502;-39
2022/11/06 00:15:10;;;;;;;0.55;0.30;;;18.80;71.70;;;;;;5019573;28;20080;-40
2022/11/06 00:17:36;;;;;;;0.93;0.60;;;18.80;71.50;;;;;;4989358;28;20438;-39
2022/11/06 00:20:02;;;;;;;1.58;0.50;;;18.80;71.50;;;;;;4997096;28;20054;-43
2022/11/06 00:22:27;;;;;;;0.60;0.52;;;18.80;71.50;;;;;;4993708;28;20128;-39
2022/11/06 00:24:53;;;;;;;1.50;0.80;;;18.80;71.60;;;;;;4996924;28;20585;-40
2022/11/06 00:27:18;;;;;;;1.10;0.47;;;18.80;71.70;;;;;;5005184;28;20037;-38
2022/11/06 00:29:44;;;;;;;1.25;0.45;;;18.80;71.80;;;;;;4998756;28;20056;-40
2022/11/06 00:32:09;;;;;;;0.40;0.40;;;18.80;71.70;;;;;;5013094;28;20069;-39
2022/11/06 00:34:35;;;;;;;1.90;0.50;;;18.80;71.40;;;;;;5011159;28;20136;-40
2022/11/06 00:37:01;;;;;;;0.40;0.30;;;18.80;71.30;;;;;;5017425;28;20045;-40
2022/11/06 00:39:26;;;;;;;0.93;0.40;;;18.80;71.40;;;;;;5006987;28;20144;-42
2022/11/06 00:41:52;;;;;;;0.40;0.40;;;18.80;71.30;;;;;;5020077;28;20448;-41
2022/11/06 00:44:17;;;;;;;1.17;0.70;;;18.80;71.50;;;;;;5002947;28;20034;-34
2022/11/06 00:46:43;;;;;;;0.50;0.30;;;18.80;71.30;;;;;;4993345;28;20046;-39
2022/11/06 00:49:08;;;;;;;0.50;0.50;;;18.80;71.40;;;;;;4992549;28;20069;-40
2022/11/06 00:51:35;;;;;;;0.60;0.35;;;18.80;71.50;;;;;;4994491;28;20482;-41
2022/11/06 00:54:03;;;;;;;1.02;0.50;;;18.80;71.60;;;;;;5000271;28;20038;-40
2022/11/06 00:56:28;;;;;;;0.75;0.35;;;18.80;71.50;;;;;;4993747;28;20088;-40
2022/11/06 00:58:54;;;;;;;1.38;0.60;;;18.80;71.40;;;;;;5010232;28;20478;-39
2022/11/06 01:01:22;;;;;;;0.57;0.40;;;18.80;71.60;;;;;;5009115;28;20035;-40
2022/11/06 01:04:13;;;;;;;0.50;0.40;;;18.80;71.70;;;;;;4994756;28;20117;-39
2022/11/06 01:06:41;;;;;;;0.30;0.30;;;18.80;71.70;;;;;;5009277;28;20054;-40
2022/11/06 01:09:07;;;;;;;0.40;0.35;;;18.80;71.50;;;;;;5009001;28;20049;-43
2022/11/06 01:11:33;;;;;;;0.70;0.50;;;18.80;71.40;;;;;;5014390;28;20142;-40
2022/11/06 01:14:00;;;;;;;1.50;0.65;;;18.80;71.50;;;;;;5014103;28;20073;-40
2022/11/06 01:16:25;;;;;;;0.40;0.40;;;18.80;71.40;;;;;;5026402;28;20057;-42
2022/11/06 01:18:52;;;;;;;0.30;0.30;;;18.80;71.40;;;;;;5007925;28;20056;-40
2022/11/06 01:21:22;;;;;;;0.40;0.30;;;18.80;71.50;;;;;;5012503;28;20784;-40
2022/11/06 01:23:54;;;;;;;0.75;0.50;;;18.80;71.70;;;;;;5009319;28;20494;-40
2022/11/06 01:26:20;;;;;;;1.00;0.68;;;18.80;71.70;;;;;;5009169;28;20044;-40
2022/11/06 01:28:46;;;;;;;0.90;0.50;;;18.80;71.60;;;;;;5012976;28;20046;-40
2022/11/06 01:31:17;;;;;;;0.35;0.32;;;18.80;71.40;;;;;;5012541;28;20056;-40
2022/11/06 01:33:42;;;;;;;0.50;0.50;;;18.80;71.60;;;;;;5007722;28;20054;-40
2022/11/06 01:36:09;;;;;;;0.80;0.40;;;18.80;71.40;;;;;;5011921;28;20103;-44
2022/11/06 01:38:35;;;;;;;0.32;0.32;;;18.90;72.20;;;;;;5014197;28;20069;-40
2022/11/06 01:41:00;;;;;;;0.30;0.30;;;18.80;71.30;;;;;;5011625;28;20080;-40
2022/11/06 01:43:51;;;;;;;0.47;0.30;;;18.80;71.40;;;;;;5011129;28;20041;-37
2022/11/06 01:46:17;;;;;;;0.43;0.30;;;18.80;71.40;;;;;;5011527;28;20057;-40
2022/11/06 01:48:48;;;;;;;0.28;0.20;;;18.80;71.60;;;;;;5010621;28;20049;-42
2022/11/06 01:51:13;;;;;;;0.52;0.30;;;18.80;71.70;;;;;;5010801;28;20041;-40
2022/11/06 01:53:39;;;;;;;0.50;0.50;;;18.80;71.60;;;;;;5025494;28;20038;-40
2022/11/06 01:56:06;;;;;;;0.52;0.30;;;18.80;71.70;;;;;;5013291;28;20053;-40
2022/11/06 01:58:32;;;;;;;0.30;0.30;;;18.80;71.30;;;;;;5006772;28;20066;-42
2022/11/06 02:00:57;;;;;;;0.80;0.35;;;18.80;71.50;;;;;;5012578;28;20064;-40
2022/11/06 02:03:23;;;;;;;0.40;0.30;;;18.80;71.40;;;;;;5013406;28;20057;-40
2022/11/06 02:05:49;;;;;;;0.30;0.30;;;18.80;71.30;;;;;;5007331;28;20041;-40
2022/11/06 02:08:19;;;;;;;1.63;0.30;;;18.80;71.40;;;;;;5010434;28;20041;-40
2022/11/06 02:10:45;;;;;;;1.25;0.43;;;18.80;71.40;;;;;;5015374;28;20061;-40
2022/11/06 02:13:31;;;;;;;0.73;0.52;;;18.80;71.00;;;;;;5008284;28;20054;-42
2022/11/06 02:16:12;;;;;;;0.60;0.40;;;18.90;71.10;;;;;;5007616;28;20112;-42
2022/11/06 02:18:43;;;;;;;1.73;0.40;;;18.80;71.10;;;;;;5015332;28;20049;-40
2022/11/06 02:21:47;;;;;;;0.30;0.30;;;18.80;71.00;;;;;;5012575;28;20568;-40
2022/11/06 02:24:47;;;;;;;0.20;0.20;;;18.80;71.20;;;;;;5046337;28;20056;-39
2022/11/06 02:27:16;;;;;;;0.88;0.30;;;18.80;71.30;;;;;;4991241;28;20579;-40
2022/11/06 02:29:59;;;;;;;0.35;0.30;;;18.80;71.30;;;;;;4994549;28;20049;-40
2022/11/06 02:32:32;;;;;;;0.30;0.30;;;18.80;71.20;;;;;;4988622;28;20610;-40
2022/11/06 02:34:59;;;;;;;0.50;0.50;;;18.80;71.20;;;;;;5006922;28;20407;-38
2022/11/06 02:37:29;;;;;;;0.43;0.43;;;18.80;71.20;;;;;;5014089;28;20050;-38
2022/11/06 02:39:56;;;;;;;0.20;0.20;;;18.70;71.30;;;;;;5005789;28;20045;-40
2022/11/06 02:42:21;;;;;;;0.32;0.30;;;18.70;71.60;;;;;;5002543;28;20042;-43
2022/11/06 02:44:48;;;;;;;0.70;0.40;;;18.70;71.50;;;;;;5015154;28;20395;-40
2022/11/06 02:47:14;;;;;;;0.60;0.40;;;18.70;71.60;;;;;;5010515;28;20049;-40
2022/11/06 02:49:41;;;;;;;0.20;0.20;;;18.70;71.60;;;;;;4998421;28;20389;-40
2022/11/06 02:52:10;;;;;;;0.30;0.30;;;18.70;71.80;;;;;;4995610;28;20054;-43
2022/11/06 02:54:37;;;;;;;0.65;0.40;;;18.60;71.80;;;;;;4998099;28;20041;-40
2022/11/06 02:57:04;;;;;;;0.57;0.30;;;18.60;71.80;;;;;;5009063;28;20065;-40
2022/11/06 02:59:39;;;;;;;0.22;0.22;;;18.60;71.70;;;;;;4990228;28;20125;-39
2022/11/06 03:02:06;;;;;;;0.73;0.30;;;18.60;71.80;;;;;;4995840;28;20426;-38
2022/11/06 03:04:34;;;;;;;0.20;0.20;;;18.60;71.90;;;;;;4979651;28;20507;-40
2022/11/06 03:07:18;;;;;;;0.40;0.38;;;18.60;71.80;;;;;;5023017;28;20481;-40
2022/11/06 03:09:43;;;;;;;0.25;0.25;;;18.60;72.60;;;;;;5015546;28;20062;-40
2022/11/06 03:12:17;;;;;;;0.30;0.30;;;18.70;71.50;;;;;;4998456;28;20096;-40
2022/11/06 03:15:15;;;;;;;0.40;0.40;;;18.70;71.60;;;;;;4996395;28;20133;-43
2022/11/06 03:17:54;;;;;;;0.20;0.20;;;18.70;71.40;;;;;;5010142;28;20128;-44
2022/11/06 03:20:36;;;;;;;0.30;0.30;;;18.70;71.20;;;;;;5022278;28;20048;-40
2022/11/06 03:23:15;;;;;;;0.20;0.20;;;18.80;71.30;;;;;;4996864;28;20165;-39
2022/11/06 03:26:06;;;;;;;0.55;0.40;;;18.80;71.20;;;;;;5012488;28;20443;-40
2022/11/06 03:28:34;;;;;;;0.30;0.30;;;18.60;71.50;;;;;;5015232;28;20157;-39
2022/11/06 03:31:05;;;;;;;0.50;0.40;;;18.60;71.60;;;;;;5011048;28;20053;-40
2022/11/06 03:33:33;;;;;;;0.65;0.40;;;18.60;71.80;;;;;;5013526;28;20056;-39
2022/11/06 03:36:21;;;;;;;1.10;0.35;;;18.60;71.80;;;;;;5013856;28;20048;-40
2022/11/06 03:38:49;;;;;;;0.30;0.30;;;18.60;71.70;;;;;;4994758;28;20046;-40
2022/11/06 03:41:33;;;;;;;0.25;0.25;;;18.70;71.70;;;;;;5015062;28;20037;-43
2022/11/06 03:43:59;;;;;;;0.50;0.40;;;18.70;71.30;;;;;;5013167;28;20425;-39
2022/11/06 03:46:24;;;;;;;0.40;0.40;;;18.70;71.30;;;;;;5009824;28;20518;-40
2022/11/06 03:48:55;;;;;;;0.82;0.28;;;18.70;71.10;;;;;;5008570;28;20053;-42
2022/11/06 03:51:32;;;;;;;0.30;0.30;;;18.70;71.30;;;;;;5013400;28;20041;-40
2022/11/06 03:54:01;;;;;;;0.38;0.38;;;18.70;71.10;;;;;;5011928;28;20521;-40
2022/11/06 03:56:32;;;;;;;1.58;0.25;;;18.70;71.10;;;;;;5013633;28;20042;-39
2022/11/06 03:58:59;;;;;;;0.43;0.30;;;18.70;71.10;;;;;;5008306;28;20047;-40
2022/11/06 04:01:27;;;;;;;0.40;0.40;;;18.70;71.20;;;;;;5015349;28;20046;-43
2022/11/06 04:03:55;;;;;;;0.20;0.20;;;18.70;71.20;;;;;;4997170;28;20038;-40
2022/11/06 04:06:46;;;;;;;0.77;0.30;;;18.70;71.10;;;;;;4995102;28;20145;-42
2022/11/06 04:14:41;;;;;;;;;;;18.70;71.10;;;;;;5005672;28;20065;-42
2022/11/06 04:17:08;;;;;;;0.28;0.28;;;18.70;71.40;;;;;;4992814;28;20482;-42
2022/11/06 04:19:34;;;;;;;0.30;0.30;;;18.70;70.90;;;;;;4975464;28;20046;-40
2022/11/06 04:22:23;;;;;;;0.25;0.25;;;18.70;71.10;;;;;;4989738;28;20165;-41
2022/11/06 04:28:15;;;;;;;0.20;0.20;;;18.60;71.60;;;;;;5000977;28;20521;-40
2022/11/06 04:31:09;;;;;;;1.25;0.30;;;18.60;71.60;;;;;;4995768;28;20046;-40
2022/11/06 04:33:53;;;;;;;0.45;0.38;;;18.60;71.70;;;;;;5012204;28;20122;-45
2022/11/06 04:36:34;;;;;;;0.40;0.32;;;18.60;71.30;;;;;;5014293;28;20510;-42
2022/11/06 04:39:28;;;;;;;0.55;0.40;;;18.60;71.40;;;;;;4985417;28;20050;-41
2022/11/06 04:42:17;;;;;;;0.35;0.28;;;18.60;71.50;;;;;;4977735;28;20526;-44
2022/11/06 04:44:46;;;;;;;0.35;0.30;;;18.60;71.10;;;;;;4989574;28;20041;-41
2022/11/06 04:47:14;;;;;;;0.40;0.30;;;18.80;70.30;;;;;;4997048;28;20052;-40
2022/11/06 04:49:40;;;;;;;0.43;0.30;;;18.80;70.50;;;;;;5027340;28;20520;-40
2022/11/06 04:52:07;;;;;;;0.50;0.30;;;18.70;70.70;;;;;;5009838;28;20111;-42
2022/11/06 04:54:32;;;;;;;0.40;0.32;;;18.80;70.40;;;;;;5009956;28;20045;-37
2022/11/06 04:57:01;;;;;;;0.50;0.40;;;18.70;70.50;;;;;;5006512;28;20058;-42
2022/11/06 04:59:27;;;;;;;0.30;0.28;;;18.80;70.20;;;;;;5002553;28;20040;-40
2022/11/06 05:01:52;;;;;;;0.47;0.30;;;18.80;70.20;;;;;;5010901;28;20058;-39
2022/11/06 05:04:18;;;;;;;0.50;0.22;;;18.90;70.30;;;;;;4996204;28;20042;-43
2022/11/06 05:06:43;;;;;;;0.73;0.60;;;18.90;70.70;;;;;;4994174;28;20187;-40
2022/11/06 05:09:09;;;;;;;0.40;0.32;;;18.80;70.10;;;;;;4996189;28;20395;-39
2022/11/06 05:11:35;;;;;;;0.35;0.35;;;18.80;70.20;;;;;;5002440;28;20200;-40
2022/11/06 05:14:00;;;;;;;0.47;0.30;;;18.80;70.70;;;;;;5010407;28;20513;-40
2022/11/06 05:16:26;;;;;;;0.45;0.30;;;18.80;70.00;;;;;;5017433;28;20050;-40
2022/11/06 05:18:51;;;;;;;0.40;0.40;;;18.80;70.00;;;;;;5012819;28;20037;-40
2022/11/06 05:24:01;;;;;;;0.20;0.20;;;18.80;70.30;;;;;;5004135;28;20103;-40
2022/11/06 05:26:26;;;;;;;0.20;0.20;;;18.80;70.00;;;;;;5013509;28;20038;-40
2022/11/06 05:28:52;;;;;;;0.77;0.30;;;18.80;70.20;;;;;;5000788;28;20522;-40
2022/11/06 05:31:17;;;;;;;0.52;0.28;;;18.80;69.80;;;;;;5009250;28;20042;-39
2022/11/06 05:33:43;;;;;;;0.40;0.32;;;18.70;70.20;;;;;;4999265;28;20495;-43
2022/11/06 05:36:09;;;;;;;0.40;0.30;;;18.80;70.20;;;;;;4996133;28;20112;-42
2022/11/06 05:38:34;;;;;;;0.20;0.10;;;18.70;70.20;;;;;;4994885;28;20145;-37
2022/11/06 05:41:00;;;;;;;0.47;0.30;;;18.80;70.10;;;;;;4994448;28;20140;-40
2022/11/06 05:43:25;;;;;;;0.60;0.40;;;18.80;70.10;;;;;;4994972;28;20045;-38
2022/11/06 05:45:51;;;;;;;0.47;0.30;;;18.80;69.80;;;;;;5011587;28;20061;-40
2022/11/06 05:48:17;;;;;;;0.32;0.30;;;18.80;69.90;;;;;;5016066;28;20612;-40
2022/11/06 05:50:42;;;;;;;0.43;0.32;;;18.80;70.00;;;;;;5007540;28;20426;-43
2022/11/06 05:53:08;;;;;;;0.50;0.40;;;18.80;70.00;;;;;;5008955;28;20076;-44
2022/11/06 05:55:33;;;;;;;0.20;0.20;;;18.70;70.30;;;;;;5010899;28;20099;-40
2022/11/06 05:57:59;;;;;;;0.30;0.30;;;18.80;70.00;;;;;;5012733;28;20092;-40
2022/11/06 06:00:25;;;;;;;0.20;0.20;;;18.70;70.10;;;;;;5007396;28;20129;-40
2022/11/06 06:02:50;;;;;;;0.35;0.35;;;18.80;69.80;;;;;;5013275;28;20064;-40
2022/11/06 06:05:16;;;;;;;0.43;0.30;;;18.80;69.70;;;;;;4990985;28;20046;-40
2022/11/06 06:07:41;;;;;;;0.35;0.20;;;18.80;69.80;;;;;;4992605;28;20045;-40
2022/11/06 06:10:07;;;;;;;0.20;0.10;;;18.80;70.00;;;;;;4989191;28;20038;-39
2022/11/06 06:12:33;;;;;;;0.40;0.40;;;18.70;70.00;;;;;;4994031;28;20053;-40
2022/11/06 06:14:58;;;;;;;0.20;0.20;;;18.80;69.90;;;;;;4990273;28;20133;-40
2022/11/06 06:17:24;;;;;;;0.20;0.20;;;18.80;70.10;;;;;;4990972;28;20050;-40
2022/11/06 06:19:50;;;;;;;0.30;0.30;;;18.70;70.30;;;;;;4991210;28;20104;-40
2022/11/06 06:22:15;;;;;;;0.22;0.20;;;18.70;70.60;;;;;;4991355;28;20498;-40
2022/11/06 06:24:41;;;;;;;0.35;0.13;;;18.70;71.40;;;;;;4988485;28;20193;-40
2022/11/06 06:27:06;;;;;;;0.17;0.15;;;18.70;72.30;;;;;;4993873;28;20053;-40
2022/11/06 06:29:32;;;;;;;1.27;0.30;;;18.70;72.40;;;;;;4992135;28;20174;-40
2022/11/06 06:31:57;;;;;;;0.40;0.35;;;18.70;72.80;;;;;;4991337;28;20061;-40
2022/11/06 06:34:23;;;;;;;1.13;0.20;;;18.70;73.00;;;;;;5005318;28;20507;-40
2022/11/06 06:36:52;;;;;;;0.20;0.20;;;18.70;73.00;;;;;;5009978;28;20086;-41
2022/11/06 06:39:20;;;;;;;0.43;0.30;;;18.70;73.20;;;;;;5013072;28;20047;-42
2022/11/06 06:41:47;;;;;;;0.45;0.25;;;18.70;73.40;;;;;;5010010;28;20050;-40
2022/11/06 06:44:12;;;;;;;0.30;0.30;;;18.70;73.20;;;;;;5010937;28;20064;-40
2022/11/06 06:46:38;;;;;;;0.28;0.28;;;18.70;73.30;;;;;;5010451;28;20068;-41
2022/11/06 06:49:03;;;;;;;1.00;0.38;;;18.70;73.40;;;;;;5009517;28;20197;-40
2022/11/06 06:51:29;;;;;;;0.68;0.25;;;18.60;73.30;;;;;;4996150;28;20556;-40
2022/11/06 06:53:55;;;;;;;0.40;0.30;;;18.60;73.40;;;;;;5007789;28;20041;-42
2022/11/06 06:56:20;;;;;;;0.10;0.10;;;18.60;73.30;;;;;;5005835;28;20050;-42
2022/11/06 06:58:46;;;;;;;0.30;0.20;;;18.60;73.30;;;;;;4991415;28;20121;-40
2022/11/06 07:01:11;;;;;;;0.20;0.20;;;18.60;73.20;;;;;;4994313;28;20050;-43
2022/11/06 07:03:37;;;;;;;0.10;0.10;;;18.60;73.20;;;;;;4993044;28;20038;-42
2022/11/06 07:06:03;;;;;;;0.20;0.20;;;18.60;73.10;;;;;;4990492;28;20062;-43
2022/11/06 07:08:29;;;;;;;0.38;0.30;;;18.60;73.00;;;;;;4998058;28;20034;-40
2022/11/06 07:11:05;;;;;;;0.40;0.32;;;18.60;72.90;;;;;;5014189;28;20125;-40
2022/11/06 07:13:31;;;;;;;0.20;0.20;;;18.60;72.90;;;;;;5007049;28;20037;-38
2022/11/06 07:15:56;;;;;;;1.20;0.20;;;18.60;72.90;;;;;;5011056;28;20108;-44
2022/11/06 07:18:22;;;;;;;0.20;0.20;;;18.60;72.90;;;;;;5009052;28;20048;-40
2022/11/06 07:20:47;;;;;;;0.88;0.43;;;18.60;73.00;;;;;;5010845;28;20045;-39
2022/11/06 07:23:13;;;;;;;0.85;0.20;;;18.60;72.90;;;;;;5011803;28;20041;-44
2022/11/06 07:25:39;;;;;;;0.08;0.08;;;18.60;72.70;;;;;;5010286;28;20474;-40
2022/11/06 07:28:05;;;;;;;0.10;0.10;;;18.60;72.60;;;;;;5018420;28;20045;-39
2022/11/06 07:30:31;;;;;;;0.13;0.13;;;18.60;72.50;;;;;;5000361;28;20046;-39
2022/11/06 07:32:59;;;;;;;0.30;0.28;;;18.60;72.50;;;;;;4992649;28;20728;-40
2022/11/06 07:35:24;;;;;;;0.10;0.10;;;18.70;72.40;;;;;;4983524;28;20045;-39
2022/11/06 07:37:50;;;;;;;0.20;0.10;;;18.70;72.20;;;;;;4985592;28;20046;-40
2022/11/06 07:40:16;;;;;;;0.13;0.13;;;18.70;72.10;;;;;;4992200;28;20176;-40
2022/11/06 07:42:41;;;;;;;0.10;0.10;;;18.70;72.30;;;;;;4990491;28;20050;-40
2022/11/06 07:45:07;;;;;;;0.30;0.20;;;18.70;72.20;;;;;;4995007;28;20117;-40
2022/11/06 07:47:33;;;;;;;0.20;0.10;;;18.60;72.20;;;;;;5006032;28;20050;-40
2022/11/06 07:49:58;;;;;;;0.15;0.10;;;18.60;72.30;;;;;;5015743;28;20205;-42
2022/11/06 07:52:24;;;;;;;0.10;0.10;;;18.60;72.20;;;;;;5004858;28;20065;-39
2022/11/06 07:54:50;;;;;;;1.10;0.20;;;18.60;72.30;;;;;;4995537;28;20558;-40
2022/11/06 07:57:15;;;;;;;0.40;0.17;;;18.60;72.30;;;;;;4999850;28;20041;-44
2022/11/06 07:59:41;;;;;;;0.38;0.20;;;18.60;72.30;;;;;;5013412;28;20427;-40
2022/11/06 08:02:10;;;;;;;0.10;0.10;;;18.70;72.10;;;;;;5016089;28;20046;-40
2022/11/06 08:04:36;;;;;;;0.20;0.20;;;18.70;72.10;;;;;;5013238;28;20045;-40
2022/11/06 08:07:01;;;;;;;0.20;0.17;;;18.60;72.00;;;;;;5015967;28;20042;-40
2022/11/06 08:09:27;;;;;;;0.15;0.15;;;18.70;72.10;;;;;;5012778;28;20148;-37
2022/11/06 08:11:52;;;;;;;0.20;0.20;;;18.60;72.10;;;;;;5014764;28;20426;-40
2022/11/06 08:14:18;;;;;;;0.17;0.17;;;18.70;72.10;;;;;;5019614;28;20049;-40
2022/11/06 08:16:43;;;;;;;0.40;0.20;;;18.60;72.00;;;;;;5017506;28;20049;-37
2022/11/06 08:19:09;;;;;;;0.20;0.10;;;18.60;72.10;;;;;;5014122;28;20057;-40
2022/11/06 08:21:34;;;;;;;0.17;0.15;;;18.60;72.10;;;;;;5013190;28;20442;-39
2022/11/06 08:24:00;;;;;;;0.00;0.00;;;18.70;72.00;;;;;;5006683;28;20080;-40
2022/11/06 08:26:26;;;;;;;0.20;0.20;;;18.60;72.10;;;;;;5010420;28;20061;-43
2022/11/06 08:28:52;;;;;;;0.28;0.20;;;18.70;71.80;;;;;;5010313;28;20515;-38
2022/11/06 08:31:17;;;;;;;0.20;0.20;;;18.70;72.60;;;;;;4995715;28;20033;-37
2022/11/06 08:33:43;;;;;;;0.32;0.30;;;18.70;71.80;;;;;;4993333;28;20039;-38
2022/11/06 08:36:09;;;;;;;0.30;0.30;;;18.70;71.80;;;;;;4639976;28;9999999;-38
2022/11/06 08:38:35;;;;;;;0.08;0.08;;;18.70;71.60;;;;;;4980747;28;20503;-40
2022/11/06 08:41:08;;;;;;;0.08;0.00;;;18.70;71.50;;;;;;4982820;28;20050;-40
2022/11/06 08:43:34;;;;;;;0.13;0.13;;;18.70;71.60;;;;;;4988196;28;20042;-39
2022/11/06 08:45:59;;;;;;;0.20;0.20;;;18.70;71.40;;;;;;4983613;28;20034;-39
2022/11/06 08:48:25;;;;;;;0.20;0.20;;;18.70;71.60;;;;;;4987352;28;20052;-39
2022/11/06 08:50:50;;;;;;;0.50;0.20;;;18.70;72.10;;;;;;4985122;28;20081;-37
2022/11/06 08:53:16;;;;;;;2.15;0.28;;;18.70;72.10;;;;;;4980894;28;20023;-38
2022/11/06 08:55:41;;;;;;;0.20;0.20;;;18.70;71.80;;;;;;4984432;28;20634;-42
2022/11/06 08:58:07;;;;;;;0.20;0.20;;;18.70;72.30;;;;;;4986858;28;20065;-42
2022/11/06 09:00:33;;;;;;;0.10;0.10;;;18.70;72.20;;;;;;4982256;28;20074;-42
2022/11/06 09:03:03;;;;;;;1.48;0.20;;;18.80;72.00;;;;;;4983465;28;20055;-40
2022/11/06 09:05:29;;;;;;;0.20;0.20;;;18.80;72.10;;;;;;4983981;28;20104;-37
2022/11/06 09:07:56;;;;;;;0.10;0.10;;;18.80;72.20;;;;;;4979340;28;20511;-42
2022/11/06 09:10:21;;;;;;;0.20;0.20;;;18.80;72.10;;;;;;4984849;28;20198;-41
2022/11/06 09:12:47;;;;;;;0.95;0.20;;;18.80;72.80;;;;;;4982083;28;20046;-38
2022/11/06 09:15:12;;;;;;;0.20;0.10;;;18.80;72.90;;;;;;4983797;28;20045;-40
2022/11/06 09:17:48;;;;;;;0.25;0.13;;;18.70;72.30;;;;;;4983881;28;20111;-39
2022/11/06 09:20:14;;;;;;;0.28;0.15;;;18.80;72.20;;;;;;4985079;28;20507;-40
2022/11/06 09:22:40;;;;;;;0.10;0.10;;;19.00;71.70;;;;;;4982863;28;20054;-42
2022/11/06 09:25:06;;;;;;;1.48;0.15;;;19.10;71.50;;;;;;4981494;28;20574;-39
2022/11/06 09:27:32;;;;;;;0.20;0.20;;;19.20;71.60;;;;;;4985604;28;20046;-40
2022/11/06 09:29:58;;;;;;;0.30;0.20;;;19.20;71.40;;;;;;4990153;28;20108;-41
2022/11/06 09:32:23;;;;;;;1.00;0.40;;;19.30;70.80;;;;;;4987501;28;20411;-40
2022/11/06 09:34:49;;;;;;;0.30;0.10;;;19.30;70.50;;;;;;4983391;28;20053;-40
2022/11/06 09:37:15;;;;;;;1.33;0.28;;;19.30;70.80;;;;;;4986438;28;20104;-40
2022/11/06 09:39:40;;;;;;;0.20;0.20;;;19.20;71.10;;;;;;5004149;28;20050;-45
2022/11/06 09:42:19;;;;;;;0.70;0.10;;;19.20;71.00;;;;;;5003268;28;20041;-40
2022/11/06 09:44:53;;;;;;;0.10;0.10;;;19.30;70.40;;;;;;5012517;28;20073;-40
2022/11/06 09:47:21;;;;;;;0.30;0.20;;;19.30;70.90;;;;;;5001273;28;20069;-40
2022/11/06 09:49:49;;;;;;;0.32;0.10;;;19.20;70.90;;;;;;4998422;28;20053;-39
2022/11/06 09:52:37;;;;;;;0.10;0.10;;;19.30;70.60;;;;;;4984505;28;20462;-39
2022/11/06 09:55:11;;;;;;;0.15;0.15;;;19.30;70.90;;;;;;5015488;28;20041;-40
2022/11/06 09:57:36;;;;;;;;;;;19.20;71.10;;;;;;5008078;28;20074;-39
2022/11/06 10:00:03;;;;;;;0.50;0.10;;;19.20;71.60;;;;;;4643420;28;9999831;-40
2022/11/06 10:02:49;;;;;;;0.10;0.10;;;19.20;71.40;;;;;;5001039;28;20533;-42
2022/11/06 10:05:24;;;;;;;0.30;0.10;;;19.30;71.00;;;;;;5011448;28;20068;-38
2022/11/06 10:07:51;;;;;;;0.52;0.10;;;19.40;71.20;;;;;;5008487;28;20480;-31
2022/11/06 10:10:18;;;;;;;0.40;0.20;;;19.40;71.30;;;;;;5022396;28;20060;-39
2022/11/06 10:12:59;;;;;;;0.20;0.10;;;19.10;72.60;;;;;;4989194;28;20128;-39
2022/11/06 10:16:06;;;;;;;0.52;0.15;;;18.90;73.40;;;;;;5040581;28;20554;-42
2022/11/06 10:18:55;;;;;;;0.15;0.10;;;18.90;73.30;;;;;;5014045;28;20658;-40
2022/11/06 10:21:24;;;;;;;0.40;0.15;;;18.90;73.10;;;;;;4973512;28;20108;-40
2022/11/06 10:24:00;;;;;;;0.20;0.20;;;18.90;73.50;;;;;;5009598;28;20131;-40
2022/11/06 10:26:32;;;;;;;0.10;0.10;;;18.90;73.40;;;;;;5007415;28;20034;-39
2022/11/06 10:29:12;;;;;;;0.10;0.10;;;18.90;73.50;;;;;;5011876;28;20042;-39
2022/11/06 10:31:50;;;;;;;0.20;0.17;;;18.80;73.40;;;;;;5001875;28;20060;-40
2022/11/06 10:34:47;;;;;;;1.85;0.20;;;18.80;73.40;;;;;;4981007;28;20480;-38
2022/11/06 10:37:19;;;;;;;0.55;0.40;;;18.80;73.50;;;;;;4991116;28;20054;-40
2022/11/06 10:39:45;;;;;;;0.20;0.20;;;18.80;73.50;;;;;;4990880;28;20093;-40
2022/11/06 10:42:18;;;;;;;0.95;0.17;;;18.80;73.50;;;;;;5009462;28;20073;-40
2022/11/06 10:45:16;;;;;;;0.13;0.13;;;18.80;73.50;;;;;;5003821;28;20045;-41
2022/11/06 10:47:44;;;;;;;0.10;0.10;;;18.80;73.60;;;;;;4996166;28;20030;-38
2022/11/06 10:50:11;;;;;;;0.20;0.20;;;18.80;73.70;;;;;;4989051;28;20675;-40
2022/11/06 10:52:56;;;;;;;0.10;0.10;;;18.80;73.60;;;;;;5004054;28;20041;-39
2022/11/06 10:55:38;;;;;;;;;;;18.80;73.60;;;;;;5034183;28;20128;-40
2022/11/06 10:58:05;;;;;;;1.35;0.10;;;18.80;73.60;;;;;;5042695;28;19922;-40
2022/11/06 11:00:31;;;;;;;0.20;0.20;;;18.80;73.50;;;;;;5007940;28;20042;-39
2022/11/06 11:02:59;;;;;;;0.50;0.20;;;18.80;73.40;;;;;;5005308;28;20056;-42
2022/11/06 11:05:25;;;;;;;0.30;0.10;;;18.80;73.30;;;;;;5018024;28;20046;-40
2022/11/06 11:07:51;;;;;;;0.77;0.20;;;19.00;72.80;;;;;;5000220;28;20454;-40
2022/11/06 11:10:35;;;;;;;0.32;0.10;;;19.00;72.50;;;;;;5007951;28;20053;-42
2022/11/06 11:13:02;;;;;;;0.28;0.20;;;19.00;72.50;;;;;;5004661;28;20046;-40
2022/11/06 11:15:50;;;;;;;0.20;0.20;;;19.00;72.60;;;;;;5007974;28;20111;-40
2022/11/06 11:18:23;;;;;;;0.22;0.20;;;19.00;72.70;;;;;;5005758;28;20057;-41
2022/11/06 11:20:50;;;;;;;0.20;0.20;;;19.00;73.30;;;;;;5005189;28;20045;-42
2022/11/06 11:23:23;;;;;;;0.63;0.22;;;19.10;72.20;;;;;;5004789;28;20084;-39
2022/11/06 11:25:56;;;;;;;2.38;0.30;;;19.10;72.40;;;;;;5002317;28;20383;-40
2022/11/06 11:28:32;;;;;;;0.10;0.10;;;19.20;72.00;;;;;;4996274;28;20532;-40
2022/11/06 11:31:10;;;;;;;1.35;0.30;;;19.50;70.90;;;;;;4986402;28;20055;-40
2022/11/06 11:33:36;;;;;;;0.35;0.15;;;19.70;70.60;;;;;;4990738;28;20065;-41
2022/11/06 11:36:04;;;;;;;0.20;0.20;;;19.50;70.60;;;;;;4977481;28;20043;-39
2022/11/06 11:38:29;;;;;;;0.20;0.10;;;19.50;70.40;;;;;;4979543;28;20124;-42
2022/11/06 11:41:12;;;;;;;0.25;0.20;;;19.40;71.50;;;;;;4984882;28;20046;-41
2022/11/06 11:43:39;;;;;;;1.05;0.10;;;19.40;71.50;;;;;;5036701;28;20042;-40
2022/11/06 11:46:08;;;;;;;0.50;0.20;;;19.40;71.10;;;;;;5001634;28;20054;-40
2022/11/06 11:49:04;;;;;;;0.60;0.30;;;19.40;71.10;;;;;;5003401;28;20045;-42
2022/11/06 11:51:37;;;;;;;0.30;0.30;;;19.40;71.40;;;;;;4999834;28;20095;-40
2022/11/06 11:54:22;;;;;;;0.20;0.15;;;19.60;71.20;;;;;;5020822;28;20578;-40
2022/11/06 11:56:57;;;;;;;1.20;0.10;;;19.70;70.60;;;;;;5003587;28;20073;-40
2022/11/06 11:59:26;;;;;;;0.28;0.20;;;19.60;70.80;;;;;;5002662;28;20049;-44
2022/11/06 12:01:53;;;;;;;0.28;0.20;;;19.60;71.10;;;;;;5022475;28;20045;-40
2022/11/06 12:04:28;;;;;;;0.43;0.22;;;19.60;71.00;;;;;;4993944;28;20499;-42
2022/11/06 12:06:58;;;;;;;0.13;0.10;;;19.60;71.10;;;;;;4984115;28;20055;-40
2022/11/06 12:09:24;;;;;;;0.10;0.10;;;19.70;70.40;;;;;;4983896;28;20050;-43
2022/11/06 12:11:51;;;;;;;0.75;0.10;;;19.60;70.40;;;;;;5003579;28;20502;-40
2022/11/06 12:14:38;;;;;;;0.47;0.10;;;19.60;70.90;;;;;;5017352;28;21070;-40
2022/11/06 12:17:12;;;;;;;0.20;0.20;;;19.60;70.70;;;;;;5004694;28;20065;-40
2022/11/06 12:19:38;;;;;;;1.13;0.40;;;19.60;70.90;;;;;;5019583;28;20069;-39
2022/11/06 12:22:11;;;;;;;0.45;0.38;;;19.60;71.40;;;;;;5023160;28;20111;-38
2022/11/06 12:24:52;;;;;;;0.57;0.30;;;19.60;71.50;;;;;;5025228;28;20144;-40
2022/11/06 12:27:24;;;;;;;0.25;0.20;;;19.40;72.30;;;;;;5009909;28;20049;-40
2022/11/06 12:30:01;;;;;;;0.50;0.50;;;19.40;72.60;;;;;;5011369;28;20058;-41
2022/11/06 12:32:40;;;;;;;1.20;0.47;;;19.50;73.50;;;;;;4999902;28;20046;-41
2022/11/06 12:35:14;;;;;;;0.33;0.30;;;19.70;72.70;;;;;;4318115;28;10000822;-42
2022/11/06 12:37:42;;;;;;;2.20;0.50;;;19.80;72.30;;;;;;5013504;28;20454;-41
2022/11/06 12:40:36;;;;;;;0.28;0.28;;;19.80;72.80;;;;;;5005862;28;20084;-39
2022/11/06 12:43:05;;;;;;;0.28;0.22;;;19.80;72.20;;;;;;4984105;28;20054;-40
2022/11/06 12:46:03;;;;;;;0.60;0.30;;;19.80;72.70;;;;;;5004467;28;20056;-41
2022/11/06 12:48:51;;;;;;;0.50;0.30;;;19.80;72.30;;;;;;4995345;28;20088;-39
2022/11/06 12:51:47;;;;;;;0.80;0.50;;;19.80;72.70;;;;;;5016024;28;20120;-39
2022/11/06 12:54:37;;;;;;;0.30;0.30;;;19.80;72.20;;;;;;5033797;28;20045;-40
2022/11/06 12:57:15;;;;;;;0.75;0.60;;;19.80;72.20;;;;;;5024835;28;20053;-40
2022/11/06 12:59:44;;;;;;;0.30;0.28;;;19.90;71.50;;;;;;5025353;28;20056;-40
2022/11/06 13:02:15;;;;;;;0.60;0.35;;;19.80;71.50;;;;;;5029713;28;20171;-42
2022/11/06 13:05:18;;;;;;;0.32;0.25;;;19.80;72.00;;;;;;5030868;28;20429;-43
2022/11/06 13:08:11;;;;;;;0.40;0.20;;;19.80;71.90;;;;;;5030615;28;20051;-40
2022/11/06 13:10:40;;;;;;;0.60;0.20;;;19.90;71.80;;;;;;5029466;28;20163;-40
2022/11/06 13:13:36;;;;;;;0.35;0.30;;;19.90;71.70;;;;;;5029333;28;20053;-40
2022/11/06 13:16:10;;;;;;;0.63;0.40;;;20.00;71.20;;;;;;5026896;28;20152;-39
2022/11/06 13:18:41;;;;;;;0.47;0.47;;;20.00;71.20;;;;;;5024261;28;20477;-39